createdAt,value
2023-12-10T00:01:03.249Z,48.50
2023-12-10T00:03:35.704Z,49.50
2023-12-10T00:06:13.761Z,48.70
2023-12-10T00:08:46.931Z,52.50
2023-12-10T00:11:19.136Z,39.60
2023-12-10T00:13:51.259Z,44.00
2023-12-10T00:16:23.386Z,40.00
2023-12-10T00:18:55.570Z,42.00
2023-12-10T00:21:28.338Z,46.00
2023-12-10T00:24:00.658Z,46.90
2023-12-10T00:26:33.198Z,40.30
2023-12-10T00:29:05.313Z,42.50
2023-12-10T00:31:38.559Z,40.90
2023-12-10T00:34:10.703Z,35.30
2023-12-10T00:36:42.969Z,42.50
2023-12-10T00:39:14.908Z,43.00
2023-12-10T00:41:47.551Z,40.30
2023-12-10T00:44:19.649Z,40.80
2023-12-10T00:46:52.184Z,41.70
2023-12-10T00:49:24.321Z,50.90
2023-12-10T00:51:56.855Z,45.80
2023-12-10T00:54:29.367Z,49.60
2023-12-10T00:57:01.856Z,39.10
2023-12-10T00:59:34.028Z,46.00
2023-12-10T01:02:06.971Z,48.00
2023-12-10T01:04:39.397Z,44.00
2023-12-10T01:07:13.165Z,40.50
2023-12-10T01:09:45.246Z,40.70
2023-12-10T01:12:18.192Z,45.10
2023-12-10T01:14:50.708Z,31.90
2023-12-10T01:17:22.780Z,38.70
2023-12-10T01:19:54.977Z,45.60
2023-12-10T01:22:27.555Z,38.20
2023-12-10T01:24:59.864Z,43.90
2023-12-10T01:27:32.454Z,40.90
2023-12-10T01:30:05.034Z,42.40
2023-12-10T01:32:37.245Z,33.00
2023-12-10T01:35:11.111Z,43.90
2023-12-10T01:37:43.226Z,38.70
2023-12-10T01:40:16.739Z,40.20
2023-12-10T01:45:21.675Z,41.60
2023-12-10T01:47:55.436Z,40.50
2023-12-10T01:52:59.616Z,35.00
2023-12-10T01:55:32.048Z,38.00
2023-12-10T01:58:06.082Z,36.00
2023-12-10T02:00:39.947Z,32.80
2023-12-10T02:03:12.660Z,34.60
2023-12-10T02:05:44.723Z,40.50
2023-12-10T02:08:16.835Z,36.00
2023-12-10T02:10:49.012Z,32.30
2023-12-10T02:13:21.322Z,33.40
2023-12-10T02:15:53.589Z,31.00
2023-12-10T02:18:25.925Z,30.40
2023-12-10T02:20:59.307Z,32.10
2023-12-10T02:23:40.644Z,33.00
2023-12-10T02:26:12.868Z,35.70
2023-12-10T02:28:45.438Z,28.90
2023-12-10T02:31:17.390Z,32.80
2023-12-10T02:33:49.641Z,34.10
2023-12-10T02:36:21.840Z,34.50
2023-12-10T02:38:54.160Z,36.70
2023-12-10T02:41:26.200Z,30.20
2023-12-10T02:43:58.238Z,29.10
2023-12-10T02:46:30.148Z,35.90
2023-12-10T02:49:02.795Z,30.90
2023-12-10T02:51:34.822Z,32.90
2023-12-10T02:54:07.402Z,30.20
2023-12-10T02:56:39.468Z,29.90
2023-12-10T02:59:12.422Z,30.40
2023-12-10T03:01:45.036Z,28.80
2023-12-10T03:04:17.264Z,32.80
2023-12-10T03:06:49.449Z,28.20
2023-12-10T03:09:22.188Z,28.40
2023-12-10T03:11:54.914Z,26.50
2023-12-10T03:14:27.224Z,29.60
2023-12-10T03:16:59.678Z,29.70
2023-12-10T03:19:31.932Z,32.90
2023-12-10T03:22:04.198Z,28.90
2023-12-10T03:24:36.669Z,30.20
2023-12-10T03:27:09.244Z,29.40
2023-12-10T03:29:43.074Z,35.40
2023-12-10T03:34:46.906Z,32.70
2023-12-10T03:39:49.402Z,33.80
2023-12-10T03:42:21.467Z,32.00
2023-12-10T03:44:53.494Z,31.90
2023-12-10T03:47:25.689Z,26.90
2023-12-10T03:49:58.410Z,31.70
2023-12-10T03:52:30.702Z,31.50
2023-12-10T03:55:03.016Z,31.40
2023-12-10T03:57:35.277Z,35.10
2023-12-10T04:00:09.071Z,28.80
2023-12-10T04:02:47.106Z,33.50
2023-12-10T04:05:19.403Z,31.50
2023-12-10T04:07:52.485Z,31.10
2023-12-10T04:10:24.633Z,29.90
2023-12-10T04:12:57.153Z,29.50
2023-12-10T04:15:29.621Z,28.90
2023-12-10T04:18:02.300Z,32.60
2023-12-10T04:20:34.289Z,34.00
2023-12-10T04:23:06.450Z,32.00
2023-12-10T04:25:38.697Z,27.80
2023-12-10T04:28:10.876Z,34.70
2023-12-10T04:30:43.214Z,30.70
2023-12-10T04:33:17.033Z,36.30
2023-12-10T04:35:49.341Z,37.90
2023-12-10T04:38:21.612Z,35.20
2023-12-10T04:40:54.000Z,41.00
2023-12-10T04:43:26.566Z,36.70
2023-12-10T04:45:59.625Z,27.50
2023-12-10T04:48:31.919Z,28.60
2023-12-10T04:51:04.274Z,28.00
2023-12-10T04:53:36.332Z,32.50
2023-12-10T04:56:10.249Z,31.80
2023-12-10T04:58:42.678Z,37.90
2023-12-10T05:01:15.142Z,33.30
2023-12-10T05:03:47.505Z,34.40
2023-12-10T05:06:19.767Z,34.60
2023-12-10T05:08:52.214Z,34.40
2023-12-10T05:11:24.446Z,34.90
2023-12-10T05:13:56.576Z,28.90
2023-12-10T05:16:29.075Z,31.70
2023-12-10T05:19:01.226Z,32.20
2023-12-10T05:21:34.982Z,29.90
2023-12-10T05:26:37.605Z,32.10
2023-12-10T05:29:09.853Z,26.20
2023-12-10T05:31:42.007Z,32.00
2023-12-10T05:34:15.698Z,33.80
2023-12-10T05:36:47.845Z,26.50
2023-12-10T05:39:19.949Z,26.70
2023-12-10T05:41:52.381Z,23.30
2023-12-10T05:44:24.373Z,24.30
2023-12-10T05:46:56.618Z,28.30
2023-12-10T05:49:29.305Z,24.80
2023-12-10T05:52:01.656Z,26.90
2023-12-10T05:54:33.703Z,26.90
2023-12-10T05:57:06.030Z,28.90
2023-12-10T05:59:39.358Z,27.20
2023-12-10T06:02:11.423Z,28.10
2023-12-10T06:04:44.170Z,28.00
2023-12-10T06:07:16.469Z,28.80
2023-12-10T06:09:48.609Z,27.90
2023-12-10T06:12:20.756Z,25.80
2023-12-10T06:14:52.864Z,28.90
2023-12-10T06:17:25.191Z,24.50
2023-12-10T06:19:57.333Z,25.30
2023-12-10T06:22:29.721Z,24.60
2023-12-10T06:25:02.325Z,26.00
2023-12-10T06:27:34.558Z,27.70
2023-12-10T06:30:07.116Z,25.80
2023-12-10T06:32:39.678Z,26.80
2023-12-10T06:35:13.230Z,23.50
2023-12-10T06:37:45.593Z,24.10
2023-12-10T06:40:18.000Z,24.60
2023-12-10T06:42:50.172Z,24.00
2023-12-10T06:45:22.549Z,28.10
2023-12-10T06:47:55.229Z,23.80
2023-12-10T06:50:27.958Z,23.60
2023-12-10T06:53:00.094Z,18.10
2023-12-10T06:55:32.244Z,23.60
2023-12-10T06:58:04.361Z,24.20
2023-12-10T07:00:36.890Z,26.40
2023-12-10T07:03:09.205Z,23.20
2023-12-10T07:05:41.407Z,28.30
2023-12-10T07:08:14.605Z,23.50
2023-12-10T07:10:46.938Z,23.70
2023-12-10T07:13:19.053Z,22.70
2023-12-10T07:15:51.256Z,23.50
2023-12-10T07:18:24.225Z,24.20
2023-12-10T07:20:57.054Z,24.40
2023-12-10T07:23:29.079Z,25.40
2023-12-10T07:26:02.019Z,22.20
2023-12-10T07:28:34.920Z,26.00
2023-12-10T07:31:07.832Z,15.30
2023-12-10T07:33:40.501Z,21.20
2023-12-10T07:36:14.649Z,20.60
2023-12-10T07:38:48.251Z,20.40
2023-12-10T07:41:20.452Z,19.20
2023-12-10T07:43:52.593Z,19.20
2023-12-10T07:46:25.833Z,21.30
2023-12-10T07:48:58.205Z,21.60
2023-12-10T07:51:30.493Z,19.90
2023-12-10T07:54:02.679Z,20.60
2023-12-10T07:56:34.712Z,22.60
2023-12-10T07:59:06.883Z,23.20
2023-12-10T08:01:43.279Z,24.00
2023-12-10T08:04:16.469Z,23.50
2023-12-10T08:06:49.196Z,21.00
2023-12-10T08:09:23.318Z,23.60
2023-12-10T08:11:56.533Z,21.40
2023-12-10T08:14:30.024Z,24.40
2023-12-10T08:17:02.909Z,24.70
2023-12-10T08:19:36.823Z,23.60
2023-12-10T08:22:09.217Z,26.70
2023-12-10T08:24:41.325Z,25.80
2023-12-10T08:27:14.347Z,22.30
2023-12-10T08:29:46.672Z,19.40
2023-12-10T08:32:19.108Z,22.50
2023-12-10T08:34:51.439Z,26.00
2023-12-10T08:37:23.869Z,27.00
2023-12-10T08:39:56.029Z,26.40
2023-12-10T08:42:36.842Z,25.50
2023-12-10T08:45:12.773Z,27.40
2023-12-10T08:47:45.417Z,27.50
2023-12-10T08:50:17.801Z,25.70
2023-12-10T08:52:50.169Z,26.50
2023-12-10T08:55:25.351Z,28.20
2023-12-10T08:57:59.276Z,24.50
2023-12-10T09:00:31.883Z,24.70
2023-12-10T09:03:04.234Z,26.10
2023-12-10T09:05:36.407Z,27.30
2023-12-10T09:08:09.534Z,26.80
2023-12-10T09:10:41.919Z,25.80
2023-12-10T09:13:16.039Z,23.90
2023-12-10T09:15:48.252Z,26.80
2023-12-10T09:18:25.803Z,26.30
2023-12-10T09:20:59.821Z,25.50
2023-12-10T09:23:38.054Z,27.80
2023-12-10T09:26:11.576Z,27.50
2023-12-10T09:28:43.652Z,31.40
2023-12-10T09:31:15.844Z,28.70
2023-12-10T09:33:48.173Z,30.20
2023-12-10T09:36:22.155Z,29.00
2023-12-10T09:41:24.868Z,32.00
2023-12-10T09:43:56.847Z,35.00
2023-12-10T09:46:34.579Z,38.30
2023-12-10T09:49:09.135Z,40.80
2023-12-10T09:51:42.411Z,41.30
2023-12-10T09:54:15.454Z,36.70
2023-12-10T09:56:48.469Z,32.50
2023-12-10T09:59:20.664Z,29.90
2023-12-10T10:01:55.620Z,31.20
2023-12-10T10:04:27.931Z,29.20
2023-12-10T10:07:00.255Z,34.10
2023-12-10T10:09:37.482Z,34.70
2023-12-10T10:12:13.698Z,29.50
2023-12-10T10:14:58.705Z,25.90
2023-12-10T10:17:33.198Z,25.20
2023-12-10T10:20:06.537Z,28.60
2023-12-10T10:22:38.963Z,25.30
2023-12-10T10:25:12.135Z,26.00
2023-12-10T10:27:44.433Z,26.30
2023-12-10T10:30:17.134Z,21.80
2023-12-10T10:32:51.427Z,27.40
2023-12-10T10:35:23.935Z,25.60
2023-12-10T10:37:58.027Z,24.80
2023-12-10T10:40:30.311Z,26.50
2023-12-10T10:43:02.358Z,25.20
2023-12-10T10:45:35.706Z,25.90
2023-12-10T10:48:08.366Z,24.40
2023-12-10T10:50:42.301Z,25.30
2023-12-10T10:53:15.531Z,27.40
2023-12-10T10:55:49.890Z,27.70
2023-12-10T10:58:29.770Z,25.60
2023-12-10T11:01:03.548Z,32.60
2023-12-10T11:03:35.958Z,31.30
2023-12-10T11:06:12.928Z,35.80
2023-12-10T11:09:00.767Z,35.70
2023-12-10T11:11:39.873Z,38.60
2023-12-10T11:14:22.984Z,42.70
2023-12-10T11:17:03.233Z,35.90
2023-12-10T11:19:35.659Z,39.60
2023-12-10T11:22:09.458Z,41.20
2023-12-10T11:27:15.702Z,43.00
2023-12-10T11:29:47.899Z,38.90
2023-12-10T11:32:20.302Z,39.80
2023-12-10T11:34:52.413Z,42.80
2023-12-10T11:37:24.892Z,47.70
2023-12-10T11:39:57.172Z,49.50
2023-12-10T11:42:31.553Z,48.80
2023-12-10T11:45:03.991Z,50.30
2023-12-10T11:47:36.488Z,51.20
2023-12-10T11:50:11.335Z,53.30
2023-12-10T11:52:44.212Z,52.60
2023-12-10T11:55:16.713Z,54.00
2023-12-10T11:57:49.588Z,53.10
2023-12-10T12:00:22.211Z,57.80
2023-12-10T12:02:56.035Z,51.70
2023-12-10T12:05:28.256Z,58.10
2023-12-10T12:08:02.773Z,56.00
2023-12-10T12:10:41.600Z,54.90
2023-12-10T12:13:14.053Z,57.20
2023-12-10T12:15:50.120Z,56.80
2023-12-10T12:18:25.627Z,60.30
2023-12-10T12:20:58.173Z,60.30
2023-12-10T12:23:30.317Z,58.00
2023-12-10T12:26:02.764Z,54.80
2023-12-10T12:28:34.849Z,59.30
2023-12-10T12:31:07.777Z,52.50
2023-12-10T12:33:40.143Z,47.90
2023-12-10T12:36:13.428Z,53.70
2023-12-10T12:38:47.600Z,52.70
2023-12-10T12:41:19.947Z,54.50
2023-12-10T12:43:55.807Z,49.60
2023-12-10T12:46:28.803Z,72.60
2023-12-10T12:49:00.967Z,45.80
2023-12-10T12:51:34.432Z,52.60
2023-12-10T12:54:12.489Z,41.60
2023-12-10T12:56:46.228Z,46.00
2023-12-10T12:59:19.079Z,48.00
2023-12-10T13:01:51.720Z,37.20
2023-12-10T13:04:24.509Z,34.20
2023-12-10T13:06:57.305Z,37.40
2023-12-10T13:09:31.767Z,33.20
2023-12-10T13:12:04.637Z,29.90
2023-12-10T13:14:36.720Z,33.40
2023-12-10T13:17:09.105Z,30.70
2023-12-10T13:19:42.270Z,29.30
2023-12-10T13:22:15.471Z,24.50
2023-12-10T13:24:47.696Z,34.90
2023-12-10T13:27:22.746Z,32.70
2023-12-10T13:29:57.921Z,33.10
2023-12-10T13:32:30.614Z,34.00
2023-12-10T13:35:02.800Z,34.40
2023-12-10T13:37:34.948Z,34.70
2023-12-10T13:40:11.591Z,36.30
2023-12-10T13:42:44.148Z,32.10
2023-12-10T13:45:16.588Z,37.20
2023-12-10T13:47:48.708Z,33.00
2023-12-10T13:50:21.720Z,38.60
2023-12-10T13:52:53.952Z,36.00
2023-12-10T13:55:27.635Z,37.30
2023-12-10T14:00:31.723Z,34.80
2023-12-10T14:03:04.142Z,37.40
2023-12-10T14:05:37.167Z,38.10
2023-12-10T14:08:09.668Z,38.90
2023-12-10T14:10:42.073Z,35.80
2023-12-10T14:13:14.292Z,36.10
2023-12-10T14:15:46.746Z,38.10
2023-12-10T14:18:18.972Z,37.50
2023-12-10T14:20:51.580Z,35.50
2023-12-10T14:23:23.749Z,37.70
2023-12-10T14:25:57.300Z,37.30
2023-12-10T14:28:33.401Z,37.00
2023-12-10T14:31:09.695Z,35.50
2023-12-10T14:36:13.726Z,34.90
2023-12-10T14:38:45.910Z,35.70
2023-12-10T14:41:20.347Z,35.90
2023-12-10T14:43:52.810Z,38.70
2023-12-10T14:46:28.046Z,34.30
2023-12-10T14:49:00.284Z,35.60
2023-12-10T14:51:32.595Z,36.50
2023-12-10T14:54:04.836Z,35.90
2023-12-10T14:56:37.557Z,34.20
2023-12-10T14:59:14.257Z,36.60
2023-12-10T15:01:58.332Z,36.40
2023-12-10T15:04:34.178Z,34.60
2023-12-10T15:07:06.455Z,37.20
2023-12-10T15:09:40.096Z,37.20
2023-12-10T15:12:12.452Z,34.50
2023-12-10T15:14:45.452Z,37.60
2023-12-10T15:17:19.196Z,36.30
2023-12-10T15:22:22.457Z,39.00
2023-12-10T15:24:55.297Z,39.80
2023-12-10T15:27:27.919Z,36.30
2023-12-10T15:30:00.712Z,37.30
2023-12-10T15:32:32.883Z,37.00
2023-12-10T15:35:06.115Z,40.90
2023-12-10T15:37:39.675Z,39.70
2023-12-10T15:40:15.251Z,37.00
2023-12-10T15:42:50.025Z,37.50
2023-12-10T15:45:25.446Z,40.50
2023-12-10T15:47:58.798Z,38.70
2023-12-10T15:50:36.784Z,42.30
2023-12-10T15:53:10.034Z,37.80
2023-12-10T15:55:42.767Z,38.30
2023-12-10T15:58:15.196Z,42.60
2023-12-10T16:00:54.722Z,43.10
2023-12-10T16:03:27.621Z,39.70
2023-12-10T16:06:00.346Z,41.70
2023-12-10T16:08:32.999Z,30.70
2023-12-10T16:11:08.991Z,42.40
2023-12-10T16:13:42.504Z,39.70
2023-12-10T16:16:22.266Z,38.70
2023-12-10T16:18:56.415Z,38.30
2023-12-10T16:21:32.870Z,38.90
2023-12-10T16:24:05.981Z,39.60
2023-12-10T16:26:42.733Z,40.80
2023-12-10T16:29:18.682Z,33.90
2023-12-10T16:31:52.471Z,37.90
2023-12-10T16:34:26.798Z,42.80
2023-12-10T16:37:02.997Z,42.60
2023-12-10T16:39:39.271Z,41.20
2023-12-10T16:42:13.939Z,41.70
2023-12-10T16:44:49.108Z,46.30
2023-12-10T16:47:23.530Z,39.40
2023-12-10T16:49:56.635Z,46.90
2023-12-10T16:52:29.858Z,46.40
2023-12-10T16:55:04.904Z,39.70
2023-12-10T16:57:38.709Z,38.90
2023-12-10T17:02:47.455Z,43.60
2023-12-10T17:05:22.484Z,40.60
2023-12-10T17:07:58.311Z,41.90
2023-12-10T17:10:32.302Z,34.00
2023-12-10T17:13:07.305Z,42.40
2023-12-10T17:15:41.963Z,40.60
2023-12-10T17:18:16.654Z,44.00
2023-12-10T17:20:50.493Z,43.70
2023-12-10T17:23:24.925Z,48.50
2023-12-10T17:25:58.328Z,47.90
2023-12-10T17:28:32.141Z,45.40
2023-12-10T17:33:39.000Z,39.20
2023-12-10T17:36:21.326Z,42.20
2023-12-10T17:38:56.890Z,44.10
2023-12-10T17:41:30.901Z,41.50
2023-12-10T17:46:36.784Z,39.20
2023-12-10T17:49:11.546Z,40.70
2023-12-10T17:51:46.770Z,37.70
2023-12-10T17:54:20.970Z,42.90
2023-12-10T17:56:55.784Z,39.20
2023-12-10T17:59:31.720Z,36.90
2023-12-10T18:02:04.566Z,38.80
2023-12-10T18:04:38.772Z,33.70
2023-12-10T18:07:11.220Z,33.70
2023-12-10T18:09:44.179Z,34.50
2023-12-10T18:12:16.607Z,31.90
2023-12-10T18:14:50.457Z,33.00
2023-12-10T18:17:22.541Z,32.80
2023-12-10T18:19:55.194Z,36.60
2023-12-10T18:22:27.644Z,34.90
2023-12-10T18:25:00.207Z,34.90
2023-12-10T18:27:32.754Z,37.90
2023-12-10T18:30:05.554Z,37.80
2023-12-10T18:32:38.380Z,35.70
2023-12-10T18:35:11.861Z,38.10
2023-12-10T18:37:43.933Z,35.80
2023-12-10T18:40:18.234Z,39.00
2023-12-10T18:42:50.310Z,40.30
2023-12-10T18:45:25.929Z,37.00
2023-12-10T18:47:58.758Z,38.60
2023-12-10T18:50:32.065Z,35.10
2023-12-10T18:53:05.452Z,27.50
2023-12-10T18:55:38.671Z,34.30
2023-12-10T18:58:10.580Z,31.10
2023-12-10T19:00:45.580Z,37.60
2023-12-10T19:03:18.102Z,38.30
2023-12-10T19:05:50.865Z,31.00
2023-12-10T19:08:22.852Z,33.50
2023-12-10T19:10:55.713Z,32.50
2023-12-10T19:13:30.155Z,31.70
2023-12-10T19:16:02.669Z,36.60
2023-12-10T19:18:36.557Z,29.30
2023-12-10T19:21:18.612Z,29.10
2023-12-10T19:23:51.872Z,32.00
2023-12-10T19:26:25.144Z,31.40
2023-12-10T19:28:57.181Z,32.30
2023-12-10T19:31:30.942Z,29.20
2023-12-10T19:36:34.164Z,30.50
2023-12-10T19:39:07.179Z,27.80
2023-12-10T19:41:43.579Z,26.90
2023-12-10T19:44:20.383Z,34.40
2023-12-10T19:46:55.950Z,26.70
2023-12-10T19:49:27.987Z,28.10
2023-12-10T19:52:00.383Z,28.10
2023-12-10T19:54:32.780Z,26.80
2023-12-10T19:57:05.856Z,36.00
2023-12-10T19:59:40.341Z,26.90
2023-12-10T20:02:12.956Z,32.80
2023-12-10T20:04:45.950Z,30.80
2023-12-10T20:07:18.771Z,31.10
2023-12-10T20:09:50.935Z,31.80
2023-12-10T20:12:23.184Z,36.30
2023-12-10T20:14:55.246Z,31.60
2023-12-10T20:17:29.385Z,30.10
2023-12-10T20:20:01.575Z,29.10
2023-12-10T20:22:33.913Z,31.00
2023-12-10T20:25:19.444Z,30.10
2023-12-10T20:28:03.505Z,26.20
2023-12-10T20:30:43.146Z,32.50
2023-12-10T20:33:18.332Z,30.90
2023-12-10T20:35:58.907Z,29.40
2023-12-10T20:38:32.729Z,36.60
2023-12-10T20:41:05.831Z,43.00
2023-12-10T20:44:09.186Z,38.90
2023-12-10T20:49:29.681Z,31.30
2023-12-10T20:52:14.783Z,35.70
2023-12-10T20:54:52.302Z,32.70
2023-12-10T20:57:25.521Z,33.20
2023-12-10T21:00:05.276Z,28.20
2023-12-10T21:02:46.065Z,29.40
2023-12-10T21:05:24.772Z,30.80
2023-12-10T21:07:57.011Z,23.60
2023-12-10T21:10:29.436Z,29.80
2023-12-10T21:13:02.205Z,27.60
2023-12-10T21:15:34.591Z,24.40
2023-12-10T21:18:07.074Z,30.90
2023-12-10T21:20:39.341Z,29.50
2023-12-10T21:23:11.714Z,27.20
2023-12-10T21:25:43.876Z,31.60
2023-12-10T21:28:17.929Z,27.60
2023-12-10T21:30:50.098Z,31.10
2023-12-10T21:33:22.431Z,26.00
2023-12-10T21:35:54.491Z,31.40
2023-12-10T21:38:26.853Z,29.90
2023-12-10T21:40:59.107Z,34.20
2023-12-10T21:43:31.485Z,34.90
2023-12-10T21:46:03.625Z,28.60
2023-12-10T21:48:36.261Z,28.30
2023-12-10T21:51:09.929Z,31.60
2023-12-10T21:53:43.463Z,28.90
2023-12-10T21:56:16.477Z,27.50
2023-12-10T21:58:49.361Z,31.90
2023-12-10T22:01:22.065Z,32.60
2023-12-10T22:03:54.581Z,29.40
2023-12-10T22:06:26.709Z,26.90
2023-12-10T22:08:59.261Z,26.20
2023-12-10T22:11:31.564Z,25.30
2023-12-10T22:14:03.911Z,28.70
2023-12-10T22:16:37.203Z,28.30
2023-12-10T22:19:10.658Z,27.50
2023-12-10T22:21:42.987Z,27.80
2023-12-10T22:24:15.269Z,29.50
2023-12-10T22:26:47.288Z,27.60
2023-12-10T22:29:20.225Z,25.60
2023-12-10T22:31:53.416Z,29.30
2023-12-10T22:34:25.866Z,31.20
2023-12-10T22:36:58.306Z,34.30
2023-12-10T22:39:30.726Z,33.00
2023-12-10T22:42:04.726Z,27.50
2023-12-10T22:44:36.991Z,29.70
2023-12-10T22:47:09.355Z,26.00
2023-12-10T22:49:45.715Z,27.90
2023-12-10T22:52:19.096Z,26.50
2023-12-10T22:54:51.455Z,29.00
2023-12-10T22:57:23.869Z,28.50
2023-12-10T22:59:57.685Z,27.70
2023-12-10T23:02:30.508Z,29.10
2023-12-10T23:05:06.639Z,30.00
2023-12-10T23:07:39.855Z,27.70
2023-12-10T23:10:16.294Z,32.20
2023-12-10T23:13:03.524Z,29.40
2023-12-10T23:15:45.548Z,34.30
2023-12-10T23:18:17.750Z,35.20
2023-12-10T23:20:50.211Z,34.50
2023-12-10T23:23:23.072Z,42.20
2023-12-10T23:25:55.546Z,42.80
2023-12-10T23:28:37.543Z,44.20
2023-12-10T23:31:19.786Z,44.40
2023-12-10T23:33:55.221Z,36.50
2023-12-10T23:36:37.949Z,37.00
2023-12-10T23:39:11.818Z,41.60
2023-12-10T23:41:48.893Z,39.30
2023-12-10T23:44:22.678Z,34.70
2023-12-10T23:47:02.371Z,35.00
2023-12-10T23:49:35.536Z,34.10
2023-12-10T23:52:08.455Z,30.60
2023-12-10T23:54:43.213Z,32.20
2023-12-10T23:57:16.509Z,31.10
2023-12-10T23:59:48.572Z,30.10
